Apple Springs, TX

12:20 AM CDT on July 26, 2014 (GMT -0500)
Old Bonner Road (KTXLUFKI8) Elev 282 ft | 31.35 °N, 94.88 °W | Change Station

Current weather conditions updated 11 minutes ago

Clear
Clear
76.6 °F
Feels Like 77 °F
N
0.0
Wind Variable Wind from ENE

Today is forecast to be nearly the same temperature as yesterday.

Today
High -- | Low -- °F
--% Chance of Precip.
Yesterday
High -- | Low -- °F
Precip. -- in
6:32 AM 8:19 PM
Waning Crescent, 0% visible
Pressure 29.99 in
Visibility 10.0 miles
Clouds Clear
Heat Index 77 °F
Dew Point 74 °F
Humidity 92%
Rainfall -9999.00 in
Snow Depth Not available.
UV 0 out of 12
Pollen 3.10 out of 12
Air Quality Not available.
Flu Activity Not available.
METAR KLFK 260453Z AUTO 14004KT 10SM CLR 28/23 A3000 RMK AO2 SLP155 T02780233

More Conditions Fewer Conditions

Pressure 29.99 in
Visibility 10.0 miles
Clouds Clear
Heat Index 77 °F
Dew Point 74 °F
Humidity 92%
Rainfall -9999.00 in
Snow Depth Not available.
UV 0 out of 12
Pollen 3.10 out of 12
Air Quality Not available.
Flu Activity Not available.
METAR KLFK 260453Z AUTO 14004KT 10SM CLR 28/23 A3000 RMK AO2 SLP155 T02780233

More Conditions Fewer Conditions

10-Day Weather Forecast

Almanac

Astronomy

Jul. 26, 2014 Rise Set
Actual Time 6:32 AM CDT 8:19 PM CDT
Civil Twilight 6:06 AM CDT 8:46 PM CDT
Nautical Twilight 5:33 AM CDT 9:18 PM CDT
Astronomical Twilight 4:59 AM CDT 9:52 PM CDT
Moon 6:21 AM CDT 8:00 PM CDT
Length of Visible Light 14h 40m
Length of Day
13h 46m
Tomorrow will be 1m 17s shorter.
Waning Crescent, 0% of the Moon is Illuminated
Today
Waning Crescent
Jul 26
New
Aug 3
First Quarter
Aug 10
Full
Aug 17
Last Quarter

Today's Extremes

State Highs State Lows

Community

WunderPhotos

Upload Photos

1,737,521 photos uploaded!

Nearby

Snow Depth

Station Depth Elevation
No new snow has been reported.

Earthquake Activity

City Distance Mag. Time & Date
No recent earthquake activity has been reported nearby.
Minimum magnitude displayed is 2.5.

Coastal Water Temperatures

Place Temperature
No Stations Reporting

Nearby Weather Stations

Station Location Temp. Heat Index Dew Point Humidity Wind Precip. Elev Updated Type
Old Bonner Road, Lufkin, TX 76.6 °F 77 °F 74 °F 92% ENE  at  0.0 mph - / hr 282 ft 12:09 AM CDT Normal
RAWS LUFKIN TX, Lufkin, TX 79 °F 84 °F 79 °F 100% ESE  at  1 mph 0.00 in / hr 154 ft 11:03 PM CDT MADIS
CITY OF HUDSON, Lufkin, TX 80.2 °F 87 °F 78 °F 93% West  at  0.6 mph 0.00 in / hr 351 ft 12:20 AM CDT Rapid Fire
RAWS RATCLIFF TX, Ratcliff, TX 78 °F 80 °F 74 °F 88% North  at  0 mph 0.00 in / hr 434 ft 11:02 PM CDT MADIS
MesoWest PROSER , Lufkin, TX 86 °F 83 °F - - North  at  - 0.00 in / hr 254 ft 11:30 PM CDT MADIS
Huntington, Texas, Huntington, TX 77.6 °F 80 °F 74 °F 87% ESE  at  0.0 mph 0.00 in / hr 274 ft 12:17 AM CDT Normal

Show More Stations Show Fewer Stations